Chemical Pioneer — KAFO — position and weather

sailwx.info

Track history (hours):
 
Tides and Currents Weather Stations Pressure Air Temp Water Temp Dewpoint Dewpoint Depression Visibility Wind Speed Wind Dir Waves Ship Positions

Chemical Pioneer

Owner: US Shipping Corp, Edison, NJ. More information available from US FCC via Universal Licensing System and Coast Guard Vessel Documentation Center.

Last reported at 2016-Sep-24 19:33 UTC. Time now 2016-Sep-25 02:05 UTC.
Position N 40°19' W 073°46'.

Type: Tanker. MMSI: 366032000.

Date/timePositionNaut miles runAvg speedWind from/ knotsBaromVisibWave heightAir tempDewpointWater temp
2016-Sep-24 19:33N 40°19' W 073°46'9 8.8
2016-Sep-24 18:33N 40°10' W 073°45'1211.8
2016-Sep-24 17:32N 39°59' W 073°44'1313.5
2016-Sep-24 16:33N 39°45' W 073°42'7512.6
2016-Sep-24 10:33N 38°45' W 074°41'1212.2
2016-Sep-24 09:33N 38°46' W 074°57'6811.4
2016-Sep-24 03:34N 39°53' W 075°12'8 7.5
2016-Sep-24 02:33N 39°59' W 075°05'0 0.2
2016-Sep-24 01:28N 39°59' W 075°05'0 0.0
2016-Sep-24 00:28N 39°59' W 075°05'0 0.0
2016-Sep-23 19:28N 39°59' W 075°05'0 0.0
2016-Sep-23 17:28N 39°59' W 075°05'0 0.0
2016-Sep-23 16:28N 39°59' W 075°05'0 0.0
2016-Sep-23 15:31N 39°59' W 075°05'0 0.0
2016-Sep-23 13:28N 39°59' W 075°05'1 0.1
2016-Sep-23 09:31N 39°59' W 075°06'0 0.0
2016-Sep-23 06:31N 39°59' W 075°06'0 0.0
2016-Sep-23 04:32N 39°59' W 075°06'0 0.0
2016-Sep-23 03:31N 39°59' W 075°06'0 0.0
2016-Sep-23 02:32N 39°59' W 075°06'0 0.0
2016-Sep-23 01:31N 39°59' W 075°06'0 0.0
2016-Sep-23 00:31N 39°59' W 075°06'0 0.0
2016-Sep-22 23:31N 39°59' W 075°06'0 0.0
2016-Sep-22 20:31N 39°59' W 075°06'0 0.0
2016-Sep-22 12:31N 39°59' W 075°06'52 6.5
2016-Sep-22 04:33N 39°07' W 075°13'1414.3
2016-Sep-22 03:33N 38°54' W 075°05'22 7.3
2016-Sep-22 00:29N 38°48' W 074°38'6 6.6
2016-Sep-21 23:34N 38°48' W 074°30'6 6.4
2016-Sep-21 22:33N 38°48' W 074°22'19 6.3
2016-Sep-21 19:33N 38°48' W 073°57'59 5.9
2016-Sep-21 09:33N 39°40' W 073°20'9 8.7
2016-Sep-21 08:33N 39°48' W 073°20'25 8.5
2016-Sep-21 05:33N 40°12' W 073°33'15 7.6
2016-Sep-21 03:34N 40°23' W 073°47'8 8.4
2016-Sep-21 02:33N 40°27' W 073°56'15 0.8
2016-Sep-20 08:11N 40°35' W 074°12'0 0.0
2016-Sep-20 07:29N 40°35' W 074°12'0 0.0
2016-Sep-20 06:29N 40°35' W 074°12'0 0.0
2016-Sep-19 23:33N 40°36' W 074°12'8 1.9
2016-Sep-19 19:29N 40°36' W 074°02'0 0.0
2016-Sep-19 18:32N 40°36' W 074°02'0 0.1
2016-Sep-19 16:33N 40°36' W 074°02'4 1.9
2016-Sep-19 14:33N 40°39' W 074°05'1 0.7
2016-Sep-19 13:31N 40°39' W 074°06'0 0.0
2016-Sep-19 12:31N 40°39' W 074°06'0 0.0
2016-Sep-19 11:28N 40°39' W 074°06'0 0.0
2016-Sep-19 09:31N 40°39' W 074°06'0 0.0
2016-Sep-19 07:31N 40°39' W 074°06'0 0.0
2016-Sep-19 06:31N 40°39' W 074°06'0 0.0
2016-Sep-19 03:31N 40°39' W 074°06'0 0.0
2016-Sep-19 02:31N 40°39' W 074°06'0 0.0
2016-Sep-19 00:28N 40°39' W 074°06'0 0.0
2016-Sep-18 19:31N 40°39' W 074°06'0 0.0
2016-Sep-18 15:31N 40°39' W 074°06'0 0.0
2016-Sep-18 10:31N 40°39' W 074°06'0 0.0
2016-Sep-18 09:10N 40°39' W 074°06'50 7.5
2016-Sep-18 02:27N 40°30' W 073°01'1314.2
2016-Sep-18 01:33N 40°30' W 072°44'1514.0
2016-Sep-18 00:27N 40°31' W 072°24'144 9.7
2016-Sep-17 09:32N 41°27' W 069°28'1414.9
2016-Sep-17 08:33N 41°39' W 069°37'1615.7
2016-Sep-17 07:34N 41°53' W 069°46'3015.0
2016-Sep-17 05:33N 42°23' W 069°52'1615.6
2016-Sep-17 04:33N 42°38' W 069°46'10 0.2
2016-Sep-15 01:33N 42°48' W 069°43'  
Track history (hours):
 
Tides and Currents Weather Stations Pressure Air Temp Water Temp Dewpoint Dewpoint Depression Visibility Wind Speed Wind Dir Waves Ship Positions

Chemical Pioneer

Owner: US Shipping Corp, Edison, NJ. More information available from US FCC via Universal Licensing System and Coast Guard Vessel Documentation Center.

Last reported at 2016-Sep-24 19:33 UTC. Time now 2016-Sep-25 02:05 UTC.
Position N 40°19' W 073°46'.

Type: Tanker. MMSI: 366032000.

Date/timePositionNaut miles runAvg speedWind from/ knotsBaromVisibWave heightAir tempDewpointWater temp
2016-Sep-24 19:33N 40°19' W 073°46'9 8.8
2016-Sep-24 18:33N 40°10' W 073°45'1211.8
2016-Sep-24 17:32N 39°59' W 073°44'1313.5
2016-Sep-24 16:33N 39°45' W 073°42'7512.6
2016-Sep-24 10:33N 38°45' W 074°41'1212.2
2016-Sep-24 09:33N 38°46' W 074°57'6811.4
2016-Sep-24 03:34N 39°53' W 075°12'8 7.5
2016-Sep-24 02:33N 39°59' W 075°05'0 0.2
2016-Sep-24 01:28N 39°59' W 075°05'0 0.0
2016-Sep-24 00:28N 39°59' W 075°05'0 0.0
2016-Sep-23 19:28N 39°59' W 075°05'0 0.0
2016-Sep-23 17:28N 39°59' W 075°05'0 0.0
2016-Sep-23 16:28N 39°59' W 075°05'0 0.0
2016-Sep-23 15:31N 39°59' W 075°05'0 0.0
2016-Sep-23 13:28N 39°59' W 075°05'1 0.1
2016-Sep-23 09:31N 39°59' W 075°06'0 0.0
2016-Sep-23 06:31N 39°59' W 075°06'0 0.0
2016-Sep-23 04:32N 39°59' W 075°06'0 0.0
2016-Sep-23 03:31N 39°59' W 075°06'0 0.0
2016-Sep-23 02:32N 39°59' W 075°06'0 0.0
2016-Sep-23 01:31N 39°59' W 075°06'0 0.0
2016-Sep-23 00:31N 39°59' W 075°06'0 0.0
2016-Sep-22 23:31N 39°59' W 075°06'0 0.0
2016-Sep-22 20:31N 39°59' W 075°06'0 0.0
2016-Sep-22 12:31N 39°59' W 075°06'52 6.5
2016-Sep-22 04:33N 39°07' W 075°13'1414.3
2016-Sep-22 03:33N 38°54' W 075°05'22 7.3
2016-Sep-22 00:29N 38°48' W 074°38'6 6.6
2016-Sep-21 23:34N 38°48' W 074°30'6 6.4
2016-Sep-21 22:33N 38°48' W 074°22'19 6.3
2016-Sep-21 19:33N 38°48' W 073°57'59 5.9
2016-Sep-21 09:33N 39°40' W 073°20'9 8.7
2016-Sep-21 08:33N 39°48' W 073°20'25 8.5
2016-Sep-21 05:33N 40°12' W 073°33'15 7.6
2016-Sep-21 03:34N 40°23' W 073°47'8 8.4
2016-Sep-21 02:33N 40°27' W 073°56'15 0.8
2016-Sep-20 08:11N 40°35' W 074°12'0 0.0
2016-Sep-20 07:29N 40°35' W 074°12'0 0.0
2016-Sep-20 06:29N 40°35' W 074°12'0 0.0
2016-Sep-19 23:33N 40°36' W 074°12'8 1.9
2016-Sep-19 19:29N 40°36' W 074°02'0 0.0
2016-Sep-19 18:32N 40°36' W 074°02'0 0.1
2016-Sep-19 16:33N 40°36' W 074°02'4 1.9
2016-Sep-19 14:33N 40°39' W 074°05'1 0.7
2016-Sep-19 13:31N 40°39' W 074°06'0 0.0
2016-Sep-19 12:31N 40°39' W 074°06'0 0.0
2016-Sep-19 11:28N 40°39' W 074°06'0 0.0
2016-Sep-19 09:31N 40°39' W 074°06'0 0.0
2016-Sep-19 07:31N 40°39' W 074°06'0 0.0
2016-Sep-19 06:31N 40°39' W 074°06'0 0.0
2016-Sep-19 03:31N 40°39' W 074°06'0 0.0
2016-Sep-19 02:31N 40°39' W 074°06'0 0.0
2016-Sep-19 00:28N 40°39' W 074°06'0 0.0
2016-Sep-18 19:31N 40°39' W 074°06'0 0.0
2016-Sep-18 15:31N 40°39' W 074°06'0 0.0
2016-Sep-18 10:31N 40°39' W 074°06'0 0.0
2016-Sep-18 09:10N 40°39' W 074°06'50 7.5
2016-Sep-18 02:27N 40°30' W 073°01'1314.2
2016-Sep-18 01:33N 40°30' W 072°44'1514.0
2016-Sep-18 00:27N 40°31' W 072°24'144 9.7
2016-Sep-17 09:32N 41°27' W 069°28'1414.9
2016-Sep-17 08:33N 41°39' W 069°37'1615.7
2016-Sep-17 07:34N 41°53' W 069°46'3015.0
2016-Sep-17 05:33N 42°23' W 069°52'1615.6
2016-Sep-17 04:33N 42°38' W 069°46'10 0.2
2016-Sep-15 01:33N 42°48' W 069°43'  

Dump ship's entire track history